sensor_id;sensor_type;location;lat;lon;timestamp;temperature;humidity
36856;DHT22;22788;51.434;6.786;2023-08-17T00:01:28;21.10;99.90
36856;DHT22;22788;51.434;6.786;2023-08-17T00:03:53;20.90;99.90
36856;DHT22;22788;51.434;6.786;2023-08-17T00:06:19;20.60;99.90
36856;DHT22;22788;51.434;6.786;2023-08-17T00:08:45;20.60;99.90
36856;DHT22;22788;51.434;6.786;2023-08-17T00:11:12;20.70;99.90
36856;DHT22;22788;51.434;6.786;2023-08-17T00:13:37;20.80;99.90
36856;DHT22;22788;51.434;6.786;2023-08-17T00:16:03;20.90;99.90
36856;DHT22;22788;51.434;6.786;2023-08-17T00:18:29;20.80;99.90
36856;DHT22;22788;51.434;6.786;2023-08-17T00:20:54;20.80;99.90
36856;DHT22;22788;51.434;6.786;2023-08-17T00:23:20;20.80;99.90
36856;DHT22;22788;51.434;6.786;2023-08-17T00:25:46;20.80;99.90
36856;DHT22;22788;51.434;6.786;2023-08-17T00:28:13;20.50;99.90
36856;DHT22;22788;51.434;6.786;2023-08-17T00:30:38;20.60;99.90
36856;DHT22;22788;51.434;6.786;2023-08-17T00:33:04;20.50;99.90
36856;DHT22;22788;51.434;6.786;2023-08-17T00:35:30;20.40;99.90
36856;DHT22;22788;51.434;6.786;2023-08-17T00:37:55;20.30;99.90
36856;DHT22;22788;51.434;6.786;2023-08-17T00:40:21;20.60;99.90
36856;DHT22;22788;51.434;6.786;2023-08-17T00:42:46;20.70;99.90
36856;DHT22;22788;51.434;6.786;2023-08-17T00:45:13;20.70;99.90
36856;DHT22;22788;51.434;6.786;2023-08-17T00:47:39;20.80;99.90
36856;DHT22;22788;51.434;6.786;2023-08-17T00:50:06;20.80;99.90
36856;DHT22;22788;51.434;6.786;2023-08-17T00:52:33;20.80;99.90
36856;DHT22;22788;51.434;6.786;2023-08-17T00:55:00;20.70;99.90
36856;DHT22;22788;51.434;6.786;2023-08-17T00:57:26;20.50;99.90
36856;DHT22;22788;51.434;6.786;2023-08-17T00:59:52;20.60;99.90
36856;DHT22;22788;51.434;6.786;2023-08-17T01:02:19;20.70;99.90
36856;DHT22;22788;51.434;6.786;2023-08-17T01:04:45;20.80;99.90
36856;DHT22;22788;51.434;6.786;2023-08-17T01:07:11;20.80;99.90
36856;DHT22;22788;51.434;6.786;2023-08-17T01:09:36;20.80;99.90
36856;DHT22;22788;51.434;6.786;2023-08-17T01:12:12;20.80;99.90
36856;DHT22;22788;51.434;6.786;2023-08-17T01:14:46;20.80;99.90
36856;DHT22;22788;51.434;6.786;2023-08-17T01:17:22;20.80;99.90
36856;DHT22;22788;51.434;6.786;2023-08-17T01:19:50;20.80;99.90
36856;DHT22;22788;51.434;6.786;2023-08-17T01:22:17;20.80;99.90
36856;DHT22;22788;51.434;6.786;2023-08-17T01:24:47;20.80;99.90
36856;DHT22;22788;51.434;6.786;2023-08-17T01:27:13;20.90;99.90
36856;DHT22;22788;51.434;6.786;2023-08-17T01:29:39;20.80;99.90
36856;DHT22;22788;51.434;6.786;2023-08-17T01:32:12;20.80;99.90
36856;DHT22;22788;51.434;6.786;2023-08-17T01:34:40;20.80;99.90
36856;DHT22;22788;51.434;6.786;2023-08-17T01:37:08;20.80;99.90
36856;DHT22;22788;51.434;6.786;2023-08-17T01:39:37;20.80;99.90
36856;DHT22;22788;51.434;6.786;2023-08-17T01:42:06;20.70;99.90
36856;DHT22;22788;51.434;6.786;2023-08-17T01:44:33;20.70;99.90
36856;DHT22;22788;51.434;6.786;2023-08-17T01:46:58;20.60;99.90
36856;DHT22;22788;51.434;6.786;2023-08-17T01:49:24;20.50;99.90
36856;DHT22;22788;51.434;6.786;2023-08-17T01:51:50;20.40;99.90
36856;DHT22;22788;51.434;6.786;2023-08-17T01:54:15;20.50;99.90
36856;DHT22;22788;51.434;6.786;2023-08-17T01:56:41;20.30;99.90
36856;DHT22;22788;51.434;6.786;2023-08-17T01:59:08;20.40;99.90
36856;DHT22;22788;51.434;6.786;2023-08-17T02:01:33;20.50;99.90
36856;DHT22;22788;51.434;6.786;2023-08-17T02:03:59;20.50;99.90
36856;DHT22;22788;51.434;6.786;2023-08-17T02:06:25;20.40;99.90
36856;DHT22;22788;51.434;6.786;2023-08-17T02:08:50;20.40;99.90
36856;DHT22;22788;51.434;6.786;2023-08-17T02:11:16;20.40;99.90
36856;DHT22;22788;51.434;6.786;2023-08-17T02:13:41;20.30;99.90
36856;DHT22;22788;51.434;6.786;2023-08-17T02:16:08;20.30;99.90
36856;DHT22;22788;51.434;6.786;2023-08-17T02:18:34;20.30;99.90
36856;DHT22;22788;51.434;6.786;2023-08-17T02:20:59;20.30;99.90
36856;DHT22;22788;51.434;6.786;2023-08-17T02:23:25;20.40;99.90
36856;DHT22;22788;51.434;6.786;2023-08-17T02:25:51;20.40;99.90
36856;DHT22;22788;51.434;6.786;2023-08-17T02:28:16;20.30;99.90
36856;DHT22;22788;51.434;6.786;2023-08-17T02:30:42;20.30;99.90
36856;DHT22;22788;51.434;6.786;2023-08-17T02:33:10;20.10;99.90
36856;DHT22;22788;51.434;6.786;2023-08-17T02:35:35;20.10;99.90
36856;DHT22;22788;51.434;6.786;2023-08-17T02:38:01;20.00;99.90
36856;DHT22;22788;51.434;6.786;2023-08-17T02:40:26;20.00;99.90
36856;DHT22;22788;51.434;6.786;2023-08-17T02:42:52;20.00;99.90
36856;DHT22;22788;51.434;6.786;2023-08-17T02:45:18;20.10;99.90
36856;DHT22;22788;51.434;6.786;2023-08-17T02:47:43;20.30;99.90
36856;DHT22;22788;51.434;6.786;2023-08-17T02:50:10;20.20;99.90
36856;DHT22;22788;51.434;6.786;2023-08-17T02:52:36;20.20;99.90
36856;DHT22;22788;51.434;6.786;2023-08-17T02:55:02;20.20;99.90
36856;DHT22;22788;51.434;6.786;2023-08-17T02:57:28;20.10;99.90
36856;DHT22;22788;51.434;6.786;2023-08-17T02:59:53;20.10;99.90
36856;DHT22;22788;51.434;6.786;2023-08-17T03:02:19;20.00;99.90
36856;DHT22;22788;51.434;6.786;2023-08-17T03:04:44;20.10;99.90
36856;DHT22;22788;51.434;6.786;2023-08-17T03:07:11;20.10;99.90
36856;DHT22;22788;51.434;6.786;2023-08-17T03:09:37;19.90;99.90
36856;DHT22;22788;51.434;6.786;2023-08-17T03:12:03;19.80;99.90
36856;DHT22;22788;51.434;6.786;2023-08-17T03:14:29;19.90;99.90
36856;DHT22;22788;51.434;6.786;2023-08-17T03:16:55;19.90;99.90
36856;DHT22;22788;51.434;6.786;2023-08-17T03:19:21;19.90;99.90
36856;DHT22;22788;51.434;6.786;2023-08-17T03:21:46;20.00;99.90
36856;DHT22;22788;51.434;6.786;2023-08-17T03:24:13;20.00;99.90
36856;DHT22;22788;51.434;6.786;2023-08-17T03:26:39;20.10;99.90
36856;DHT22;22788;51.434;6.786;2023-08-17T03:29:04;20.10;99.90
36856;DHT22;22788;51.434;6.786;2023-08-17T03:31:30;20.10;99.90
36856;DHT22;22788;51.434;6.786;2023-08-17T03:33:56;19.90;99.90
36856;DHT22;22788;51.434;6.786;2023-08-17T03:36:21;19.90;99.90
36856;DHT22;22788;51.434;6.786;2023-08-17T03:38:47;19.80;99.90
36856;DHT22;22788;51.434;6.786;2023-08-17T03:41:14;19.80;99.90
36856;DHT22;22788;51.434;6.786;2023-08-17T03:43:40;19.80;99.90
36856;DHT22;22788;51.434;6.786;2023-08-17T03:46:05;19.90;99.90
36856;DHT22;22788;51.434;6.786;2023-08-17T03:48:31;19.80;99.90
36856;DHT22;22788;51.434;6.786;2023-08-17T03:50:57;20.00;99.90
36856;DHT22;22788;51.434;6.786;2023-08-17T03:53:22;19.80;99.90
36856;DHT22;22788;51.434;6.786;2023-08-17T03:55:49;19.80;99.90
36856;DHT22;22788;51.434;6.786;2023-08-17T03:58:17;19.90;99.90
36856;DHT22;22788;51.434;6.786;2023-08-17T04:00:47;19.90;99.90
36856;DHT22;22788;51.434;6.786;2023-08-17T04:03:13;20.00;99.90
36856;DHT22;22788;51.434;6.786;2023-08-17T04:05:39;20.00;99.90
36856;DHT22;22788;51.434;6.786;2023-08-17T04:08:05;20.10;99.90
36856;DHT22;22788;51.434;6.786;2023-08-17T04:10:31;20.10;99.90
36856;DHT22;22788;51.434;6.786;2023-08-17T04:12:56;20.20;99.90
36856;DHT22;22788;51.434;6.786;2023-08-17T04:15:23;20.20;99.90
36856;DHT22;22788;51.434;6.786;2023-08-17T04:17:49;20.20;99.90
36856;DHT22;22788;51.434;6.786;2023-08-17T04:20:15;20.00;99.90
36856;DHT22;22788;51.434;6.786;2023-08-17T04:22:40;20.10;99.90
36856;DHT22;22788;51.434;6.786;2023-08-17T04:25:06;20.00;99.90
36856;DHT22;22788;51.434;6.786;2023-08-17T04:27:32;20.10;99.90
36856;DHT22;22788;51.434;6.786;2023-08-17T04:29:57;20.10;99.90
36856;DHT22;22788;51.434;6.786;2023-08-17T04:32:24;20.10;99.90
36856;DHT22;22788;51.434;6.786;2023-08-17T04:34:50;20.00;99.90
36856;DHT22;22788;51.434;6.786;2023-08-17T04:37:16;19.90;99.90
36856;DHT22;22788;51.434;6.786;2023-08-17T04:39:41;19.80;99.90
36856;DHT22;22788;51.434;6.786;2023-08-17T04:42:07;19.80;99.90
36856;DHT22;22788;51.434;6.786;2023-08-17T04:44:32;19.70;99.90
36856;DHT22;22788;51.434;6.786;2023-08-17T04:46:58;19.70;99.90
36856;DHT22;22788;51.434;6.786;2023-08-17T04:49:25;19.80;99.90
36856;DHT22;22788;51.434;6.786;2023-08-17T04:51:51;19.70;99.90
36856;DHT22;22788;51.434;6.786;2023-08-17T04:54:16;19.80;99.90
36856;DHT22;22788;51.434;6.786;2023-08-17T04:56:42;19.80;99.90
36856;DHT22;22788;51.434;6.786;2023-08-17T04:59:07;19.80;99.90
36856;DHT22;22788;51.434;6.786;2023-08-17T05:01:33;19.90;99.90
36856;DHT22;22788;51.434;6.786;2023-08-17T05:03:59;19.90;99.90
36856;DHT22;22788;51.434;6.786;2023-08-17T05:06:27;19.90;99.90
36856;DHT22;22788;51.434;6.786;2023-08-17T05:08:53;19.90;99.90
36856;DHT22;22788;51.434;6.786;2023-08-17T05:11:19;19.80;99.90
36856;DHT22;22788;51.434;6.786;2023-08-17T05:13:44;19.80;99.90
36856;DHT22;22788;51.434;6.786;2023-08-17T05:16:10;19.70;99.90
36856;DHT22;22788;51.434;6.786;2023-08-17T05:18:36;19.70;99.90
36856;DHT22;22788;51.434;6.786;2023-08-17T05:21:01;19.80;99.90
36856;DHT22;22788;51.434;6.786;2023-08-17T05:23:28;19.70;99.90
36856;DHT22;22788;51.434;6.786;2023-08-17T05:25:54;19.60;99.90
36856;DHT22;22788;51.434;6.786;2023-08-17T05:28:19;19.70;99.90
36856;DHT22;22788;51.434;6.786;2023-08-17T05:30:46;19.80;99.90
36856;DHT22;22788;51.434;6.786;2023-08-17T05:33:12;19.90;99.90
36856;DHT22;22788;51.434;6.786;2023-08-17T05:35:37;19.90;99.90
36856;DHT22;22788;51.434;6.786;2023-08-17T05:38:03;20.00;99.90
36856;DHT22;22788;51.434;6.786;2023-08-17T05:40:31;20.00;99.90
36856;DHT22;22788;51.434;6.786;2023-08-17T05:42:57;20.00;99.90
36856;DHT22;22788;51.434;6.786;2023-08-17T05:45:23;19.90;99.90
36856;DHT22;22788;51.434;6.786;2023-08-17T05:47:48;19.80;99.90
36856;DHT22;22788;51.434;6.786;2023-08-17T05:50:14;19.80;99.90
36856;DHT22;22788;51.434;6.786;2023-08-17T05:52:40;19.90;99.90
36856;DHT22;22788;51.434;6.786;2023-08-17T05:55:06;19.80;99.90
36856;DHT22;22788;51.434;6.786;2023-08-17T05:57:33;19.80;99.90
36856;DHT22;22788;51.434;6.786;2023-08-17T05:59:59;19.80;99.90
36856;DHT22;22788;51.434;6.786;2023-08-17T06:02:25;19.80;99.90
36856;DHT22;22788;51.434;6.786;2023-08-17T06:04:50;19.90;99.90
36856;DHT22;22788;51.434;6.786;2023-08-17T06:07:16;19.80;99.90
36856;DHT22;22788;51.434;6.786;2023-08-17T06:09:41;19.70;99.90
36856;DHT22;22788;51.434;6.786;2023-08-17T06:12:07;19.60;99.90
36856;DHT22;22788;51.434;6.786;2023-08-17T06:14:34;19.60;99.90
36856;DHT22;22788;51.434;6.786;2023-08-17T06:17:00;19.50;99.90
36856;DHT22;22788;51.434;6.786;2023-08-17T06:19:25;19.60;99.90
36856;DHT22;22788;51.434;6.786;2023-08-17T06:21:51;19.70;99.90
36856;DHT22;22788;51.434;6.786;2023-08-17T06:24:17;19.80;99.90
36856;DHT22;22788;51.434;6.786;2023-08-17T06:26:43;19.70;99.90
36856;DHT22;22788;51.434;6.786;2023-08-17T06:29:09;19.70;99.90
36856;DHT22;22788;51.434;6.786;2023-08-17T06:31:36;19.70;99.90
36856;DHT22;22788;51.434;6.786;2023-08-17T06:34:01;19.70;99.90
36856;DHT22;22788;51.434;6.786;2023-08-17T06:36:30;19.80;99.90
36856;DHT22;22788;51.434;6.786;2023-08-17T06:38:56;19.80;99.90
36856;DHT22;22788;51.434;6.786;2023-08-17T06:41:21;19.60;99.90
36856;DHT22;22788;51.434;6.786;2023-08-17T06:43:47;19.50;99.90
36856;DHT22;22788;51.434;6.786;2023-08-17T06:46:12;19.60;99.90
36856;DHT22;22788;51.434;6.786;2023-08-17T06:48:39;19.70;99.90
36856;DHT22;22788;51.434;6.786;2023-08-17T06:51:05;19.80;99.90
36856;DHT22;22788;51.434;6.786;2023-08-17T06:53:31;19.70;99.90
36856;DHT22;22788;51.434;6.786;2023-08-17T06:55:56;19.80;99.90
36856;DHT22;22788;51.434;6.786;2023-08-17T06:58:22;19.80;99.90
36856;DHT22;22788;51.434;6.786;2023-08-17T07:00:47;19.80;99.90
36856;DHT22;22788;51.434;6.786;2023-08-17T07:03:13;19.80;99.90
36856;DHT22;22788;51.434;6.786;2023-08-17T07:05:40;19.70;99.90
36856;DHT22;22788;51.434;6.786;2023-08-17T07:08:06;19.50;99.90
36856;DHT22;22788;51.434;6.786;2023-08-17T07:10:31;19.50;99.90
36856;DHT22;22788;51.434;6.786;2023-08-17T07:12:57;19.60;99.90
36856;DHT22;22788;51.434;6.786;2023-08-17T07:15:22;19.70;99.90
36856;DHT22;22788;51.434;6.786;2023-08-17T07:17:48;19.60;99.90
36856;DHT22;22788;51.434;6.786;2023-08-17T07:20:14;19.60;99.90
36856;DHT22;22788;51.434;6.786;2023-08-17T07:22:41;19.60;99.90
36856;DHT22;22788;51.434;6.786;2023-08-17T07:25:08;19.70;99.90
36856;DHT22;22788;51.434;6.786;2023-08-17T07:27:33;19.60;99.90
36856;DHT22;22788;51.434;6.786;2023-08-17T07:29:59;19.60;99.90
36856;DHT22;22788;51.434;6.786;2023-08-17T07:32:24;19.70;99.90
36856;DHT22;22788;51.434;6.786;2023-08-17T07:34:50;19.80;99.90
36856;DHT22;22788;51.434;6.786;2023-08-17T07:37:16;19.90;99.90
36856;DHT22;22788;51.434;6.786;2023-08-17T07:39:43;19.90;99.90
36856;DHT22;22788;51.434;6.786;2023-08-17T07:42:08;19.80;99.90
36856;DHT22;22788;51.434;6.786;2023-08-17T07:44:34;19.80;99.90
36856;DHT22;22788;51.434;6.786;2023-08-17T07:47:00;19.70;99.90
36856;DHT22;22788;51.434;6.786;2023-08-17T07:49:27;19.80;99.90
36856;DHT22;22788;51.434;6.786;2023-08-17T07:51:53;19.90;99.90
36856;DHT22;22788;51.434;6.786;2023-08-17T07:54:18;19.90;99.90
36856;DHT22;22788;51.434;6.786;2023-08-17T07:56:45;19.90;99.90
36856;DHT22;22788;51.434;6.786;2023-08-17T07:59:11;19.90;99.90
36856;DHT22;22788;51.434;6.786;2023-08-17T08:01:37;19.80;99.90
36856;DHT22;22788;51.434;6.786;2023-08-17T08:04:02;19.80;99.90
36856;DHT22;22788;51.434;6.786;2023-08-17T08:06:28;19.70;99.90
36856;DHT22;22788;51.434;6.786;2023-08-17T08:08:54;19.70;99.90
36856;DHT22;22788;51.434;6.786;2023-08-17T08:11:21;19.80;99.90
36856;DHT22;22788;51.434;6.786;2023-08-17T08:13:48;19.80;99.90
36856;DHT22;22788;51.434;6.786;2023-08-17T08:16:14;19.80;99.90
36856;DHT22;22788;51.434;6.786;2023-08-17T08:18:39;19.80;99.90
36856;DHT22;22788;51.434;6.786;2023-08-17T08:21:05;19.80;99.90
36856;DHT22;22788;51.434;6.786;2023-08-17T08:23:31;19.70;99.90
36856;DHT22;22788;51.434;6.786;2023-08-17T08:25:56;19.60;99.90
36856;DHT22;22788;51.434;6.786;2023-08-17T08:28:22;19.60;99.90
36856;DHT22;22788;51.434;6.786;2023-08-17T08:30:49;19.80;99.90
36856;DHT22;22788;51.434;6.786;2023-08-17T08:33:14;19.70;99.90
36856;DHT22;22788;51.434;6.786;2023-08-17T08:35:40;19.70;99.90
36856;DHT22;22788;51.434;6.786;2023-08-17T08:38:06;19.60;99.90
36856;DHT22;22788;51.434;6.786;2023-08-17T08:40:31;19.60;99.90
36856;DHT22;22788;51.434;6.786;2023-08-17T08:42:57;19.60;99.90
36856;DHT22;22788;51.434;6.786;2023-08-17T08:45:23;19.60;99.90
36856;DHT22;22788;51.434;6.786;2023-08-17T08:47:51;19.60;99.90
36856;DHT22;22788;51.434;6.786;2023-08-17T08:50:19;19.60;99.90
36856;DHT22;22788;51.434;6.786;2023-08-17T08:52:56;19.60;99.90
36856;DHT22;22788;51.434;6.786;2023-08-17T08:55:24;19.60;99.90
36856;DHT22;22788;51.434;6.786;2023-08-17T08:57:52;19.50;99.90
36856;DHT22;22788;51.434;6.786;2023-08-17T09:00:19;19.50;99.90
36856;DHT22;22788;51.434;6.786;2023-08-17T09:02:45;19.60;99.90
36856;DHT22;22788;51.434;6.786;2023-08-17T09:05:13;19.70;99.90
36856;DHT22;22788;51.434;6.786;2023-08-17T09:07:39;19.70;99.90
36856;DHT22;22788;51.434;6.786;2023-08-17T09:10:06;19.70;99.90
36856;DHT22;22788;51.434;6.786;2023-08-17T09:12:34;19.70;99.90
36856;DHT22;22788;51.434;6.786;2023-08-17T09:14:59;19.80;99.90
36856;DHT22;22788;51.434;6.786;2023-08-17T09:17:26;19.80;99.90
36856;DHT22;22788;51.434;6.786;2023-08-17T09:19:52;19.90;99.90
36856;DHT22;22788;51.434;6.786;2023-08-17T09:22:23;19.80;99.90
36856;DHT22;22788;51.434;6.786;2023-08-17T09:24:49;19.70;99.90
36856;DHT22;22788;51.434;6.786;2023-08-17T09:27:15;19.70;99.90
36856;DHT22;22788;51.434;6.786;2023-08-17T09:29:42;19.70;99.90
36856;DHT22;22788;51.434;6.786;2023-08-17T09:32:09;19.60;99.90
36856;DHT22;22788;51.434;6.786;2023-08-17T09:34:35;19.60;99.90
36856;DHT22;22788;51.434;6.786;2023-08-17T09:37:04;19.70;99.90
36856;DHT22;22788;51.434;6.786;2023-08-17T09:39:31;19.80;99.90
36856;DHT22;22788;51.434;6.786;2023-08-17T09:41:56;19.70;99.90
36856;DHT22;22788;51.434;6.786;2023-08-17T09:44:22;19.50;99.90
36856;DHT22;22788;51.434;6.786;2023-08-17T09:46:48;19.50;99.90
36856;DHT22;22788;51.434;6.786;2023-08-17T09:49:13;19.50;99.90
36856;DHT22;22788;51.434;6.786;2023-08-17T09:51:42;19.60;99.90
36856;DHT22;22788;51.434;6.786;2023-08-17T09:54:07;19.60;99.90
36856;DHT22;22788;51.434;6.786;2023-08-17T09:56:35;19.70;99.90
36856;DHT22;22788;51.434;6.786;2023-08-17T09:59:00;19.70;99.90
36856;DHT22;22788;51.434;6.786;2023-08-17T10:01:28;19.80;99.90
36856;DHT22;22788;51.434;6.786;2023-08-17T10:03:55;19.80;99.90
36856;DHT22;22788;51.434;6.786;2023-08-17T10:06:24;19.80;99.90
36856;DHT22;22788;51.434;6.786;2023-08-17T10:08:52;19.80;99.90
36856;DHT22;22788;51.434;6.786;2023-08-17T10:11:20;19.80;99.90
36856;DHT22;22788;51.434;6.786;2023-08-17T10:13:52;19.90;99.90
36856;DHT22;22788;51.434;6.786;2023-08-17T10:16:22;20.00;99.90
36856;DHT22;22788;51.434;6.786;2023-08-17T10:18:53;20.10;99.90
36856;DHT22;22788;51.434;6.786;2023-08-17T10:21:23;20.10;99.90
36856;DHT22;22788;51.434;6.786;2023-08-17T10:23:51;20.00;99.90
36856;DHT22;22788;51.434;6.786;2023-08-17T10:26:17;20.00;99.90
36856;DHT22;22788;51.434;6.786;2023-08-17T10:28:44;20.00;99.90
36856;DHT22;22788;51.434;6.786;2023-08-17T10:31:11;20.10;99.90
36856;DHT22;22788;51.434;6.786;2023-08-17T10:33:38;20.10;99.90
36856;DHT22;22788;51.434;6.786;2023-08-17T10:36:04;20.10;99.90
36856;DHT22;22788;51.434;6.786;2023-08-17T10:38:30;20.10;99.90
36856;DHT22;22788;51.434;6.786;2023-08-17T10:41:09;20.10;99.90
36856;DHT22;22788;51.434;6.786;2023-08-17T10:43:39;20.10;99.90
36856;DHT22;22788;51.434;6.786;2023-08-17T10:46:19;20.10;99.90
36856;DHT22;22788;51.434;6.786;2023-08-17T10:48:45;20.20;99.90
36856;DHT22;22788;51.434;6.786;2023-08-17T10:51:11;20.20;99.90
36856;DHT22;22788;51.434;6.786;2023-08-17T10:53:37;20.10;99.90
36856;DHT22;22788;51.434;6.786;2023-08-17T10:56:07;20.20;99.90
36856;DHT22;22788;51.434;6.786;2023-08-17T10:58:32;20.20;99.90
36856;DHT22;22788;51.434;6.786;2023-08-17T11:00:58;20.30;99.90
36856;DHT22;22788;51.434;6.786;2023-08-17T11:03:25;20.30;99.90
36856;DHT22;22788;51.434;6.786;2023-08-17T11:05:52;20.20;99.90
36856;DHT22;22788;51.434;6.786;2023-08-17T11:08:21;20.30;99.90
36856;DHT22;22788;51.434;6.786;2023-08-17T11:10:48;20.20;99.90
36856;DHT22;22788;51.434;6.786;2023-08-17T11:13:13;20.20;99.90
36856;DHT22;22788;51.434;6.786;2023-08-17T11:15:40;20.30;99.90
36856;DHT22;22788;51.434;6.786;2023-08-17T11:18:06;20.20;99.90
36856;DHT22;22788;51.434;6.786;2023-08-17T11:20:33;20.20;99.90
36856;DHT22;22788;51.434;6.786;2023-08-17T11:22:59;20.10;99.90
36856;DHT22;22788;51.434;6.786;2023-08-17T11:25:25;20.10;99.90
36856;DHT22;22788;51.434;6.786;2023-08-17T11:27:52;20.20;99.90
36856;DHT22;22788;51.434;6.786;2023-08-17T11:30:17;20.20;99.90
36856;DHT22;22788;51.434;6.786;2023-08-17T11:32:43;20.20;99.90
36856;DHT22;22788;51.434;6.786;2023-08-17T11:35:09;20.10;99.90
36856;DHT22;22788;51.434;6.786;2023-08-17T11:37:36;20.20;99.90
36856;DHT22;22788;51.434;6.786;2023-08-17T11:40:01;20.20;99.90
36856;DHT22;22788;51.434;6.786;2023-08-17T11:42:27;20.30;99.90
36856;DHT22;22788;51.434;6.786;2023-08-17T11:44:53;20.30;99.90
36856;DHT22;22788;51.434;6.786;2023-08-17T11:47:18;20.20;99.90
36856;DHT22;22788;51.434;6.786;2023-08-17T11:49:47;20.20;99.90
36856;DHT22;22788;51.434;6.786;2023-08-17T11:52:13;20.30;99.90
36856;DHT22;22788;51.434;6.786;2023-08-17T11:54:41;20.30;99.90
36856;DHT22;22788;51.434;6.786;2023-08-17T11:57:07;20.40;99.90
36856;DHT22;22788;51.434;6.786;2023-08-17T11:59:32;20.40;99.90
36856;DHT22;22788;51.434;6.786;2023-08-17T12:01:58;20.30;99.90
36856;DHT22;22788;51.434;6.786;2023-08-17T12:04:24;20.30;99.90
36856;DHT22;22788;51.434;6.786;2023-08-17T12:06:49;20.40;99.90
36856;DHT22;22788;51.434;6.786;2023-08-17T12:09:15;20.30;99.90
36856;DHT22;22788;51.434;6.786;2023-08-17T12:11:44;20.30;99.90
36856;DHT22;22788;51.434;6.786;2023-08-17T12:14:11;20.30;99.90
36856;DHT22;22788;51.434;6.786;2023-08-17T12:16:45;20.30;99.90
36856;DHT22;22788;51.434;6.786;2023-08-17T12:19:11;20.30;99.90
36856;DHT22;22788;51.434;6.786;2023-08-17T12:21:37;20.30;99.90
36856;DHT22;22788;51.434;6.786;2023-08-17T12:24:06;20.30;99.90
36856;DHT22;22788;51.434;6.786;2023-08-17T12:26:32;20.30;99.90
36856;DHT22;22788;51.434;6.786;2023-08-17T12:28:59;20.30;99.90
36856;DHT22;22788;51.434;6.786;2023-08-17T12:31:24;20.30;99.90
36856;DHT22;22788;51.434;6.786;2023-08-17T12:33:50;20.40;99.90
36856;DHT22;22788;51.434;6.786;2023-08-17T12:36:15;20.40;99.90
36856;DHT22;22788;51.434;6.786;2023-08-17T12:38:41;20.30;99.90
36856;DHT22;22788;51.434;6.786;2023-08-17T12:41:07;20.30;99.90
36856;DHT22;22788;51.434;6.786;2023-08-17T12:43:32;20.30;99.90
36856;DHT22;22788;51.434;6.786;2023-08-17T12:45:59;20.30;99.90
36856;DHT22;22788;51.434;6.786;2023-08-17T12:48:25;20.30;99.90
36856;DHT22;22788;51.434;6.786;2023-08-17T12:50:50;20.30;99.90
36856;DHT22;22788;51.434;6.786;2023-08-17T12:53:16;20.30;99.90
36856;DHT22;22788;51.434;6.786;2023-08-17T12:55:42;20.30;99.90
36856;DHT22;22788;51.434;6.786;2023-08-17T12:58:08;20.40;99.90
36856;DHT22;22788;51.434;6.786;2023-08-17T13:00:33;20.30;99.90
36856;DHT22;22788;51.434;6.786;2023-08-17T13:03:00;20.50;99.90
36856;DHT22;22788;51.434;6.786;2023-08-17T13:05:26;20.50;99.90
36856;DHT22;22788;51.434;6.786;2023-08-17T13:07:52;20.50;99.90
36856;DHT22;22788;51.434;6.786;2023-08-17T13:10:17;20.50;99.90
36856;DHT22;22788;51.434;6.786;2023-08-17T13:12:43;20.50;99.90
36856;DHT22;22788;51.434;6.786;2023-08-17T13:15:10;20.40;99.90
36856;DHT22;22788;51.434;6.786;2023-08-17T13:17:35;20.40;99.90
36856;DHT22;22788;51.434;6.786;2023-08-17T13:20:03;20.40;99.90
36856;DHT22;22788;51.434;6.786;2023-08-17T13:22:29;20.40;99.90
36856;DHT22;22788;51.434;6.786;2023-08-17T13:24:55;20.40;99.90
36856;DHT22;22788;51.434;6.786;2023-08-17T13:27:20;20.40;99.90
36856;DHT22;22788;51.434;6.786;2023-08-17T13:29:46;20.40;99.90
36856;DHT22;22788;51.434;6.786;2023-08-17T13:32:12;20.50;99.90
36856;DHT22;22788;51.434;6.786;2023-08-17T13:34:37;20.50;99.90
36856;DHT22;22788;51.434;6.786;2023-08-17T13:37:04;20.50;99.90
36856;DHT22;22788;51.434;6.786;2023-08-17T13:39:30;20.50;99.90
36856;DHT22;22788;51.434;6.786;2023-08-17T13:41:55;20.50;99.90
36856;DHT22;22788;51.434;6.786;2023-08-17T13:44:21;20.50;99.90
36856;DHT22;22788;51.434;6.786;2023-08-17T13:46:47;20.50;99.90
36856;DHT22;22788;51.434;6.786;2023-08-17T13:49:12;20.50;99.90
36856;DHT22;22788;51.434;6.786;2023-08-17T13:51:38;20.60;99.90
36856;DHT22;22788;51.434;6.786;2023-08-17T13:54:05;20.60;99.90
36856;DHT22;22788;51.434;6.786;2023-08-17T13:56:31;20.50;99.90
36856;DHT22;22788;51.434;6.786;2023-08-17T13:58:56;20.50;99.90
36856;DHT22;22788;51.434;6.786;2023-08-17T14:01:22;20.50;99.90
36856;DHT22;22788;51.434;6.786;2023-08-17T14:03:47;20.60;99.90
36856;DHT22;22788;51.434;6.786;2023-08-17T14:06:13;20.60;99.90
36856;DHT22;22788;51.434;6.786;2023-08-17T14:08:39;20.60;99.90
36856;DHT22;22788;51.434;6.786;2023-08-17T14:11:06;20.60;99.90
36856;DHT22;22788;51.434;6.786;2023-08-17T14:13:32;20.60;99.90
36856;DHT22;22788;51.434;6.786;2023-08-17T14:15:57;20.60;99.90
36856;DHT22;22788;51.434;6.786;2023-08-17T14:18:23;20.60;99.90
36856;DHT22;22788;51.434;6.786;2023-08-17T14:20:48;20.60;99.90
36856;DHT22;22788;51.434;6.786;2023-08-17T14:23:14;20.60;99.90
36856;DHT22;22788;51.434;6.786;2023-08-17T14:25:40;20.60;99.90
36856;DHT22;22788;51.434;6.786;2023-08-17T14:28:07;20.60;99.90
36856;DHT22;22788;51.434;6.786;2023-08-17T14:30:33;20.60;99.90
36856;DHT22;22788;51.434;6.786;2023-08-17T14:32:59;20.60;99.90
36856;DHT22;22788;51.434;6.786;2023-08-17T14:35:26;20.60;99.90
36856;DHT22;22788;51.434;6.786;2023-08-17T14:37:51;20.60;99.90
36856;DHT22;22788;51.434;6.786;2023-08-17T14:40:17;20.60;99.90
36856;DHT22;22788;51.434;6.786;2023-08-17T14:42:43;20.60;99.90
36856;DHT22;22788;51.434;6.786;2023-08-17T14:45:11;20.60;99.90
36856;DHT22;22788;51.434;6.786;2023-08-17T14:47:36;20.60;99.90
36856;DHT22;22788;51.434;6.786;2023-08-17T14:50:02;20.60;99.90
36856;DHT22;22788;51.434;6.786;2023-08-17T14:52:28;20.60;99.90
36856;DHT22;22788;51.434;6.786;2023-08-17T14:54:54;20.70;99.90
36856;DHT22;22788;51.434;6.786;2023-08-17T14:57:19;20.60;99.90
36856;DHT22;22788;51.434;6.786;2023-08-17T14:59:45;20.60;99.90
36856;DHT22;22788;51.434;6.786;2023-08-17T15:02:12;20.90;99.90
36856;DHT22;22788;51.434;6.786;2023-08-17T15:04:37;20.70;99.90
36856;DHT22;22788;51.434;6.786;2023-08-17T15:07:03;20.70;99.90
36856;DHT22;22788;51.434;6.786;2023-08-17T15:09:29;20.70;99.90
36856;DHT22;22788;51.434;6.786;2023-08-17T15:11:54;20.70;99.90
36856;DHT22;22788;51.434;6.786;2023-08-17T15:14:20;20.80;99.90
36856;DHT22;22788;51.434;6.786;2023-08-17T15:16:45;20.80;99.90
36856;DHT22;22788;51.434;6.786;2023-08-17T15:19:12;20.80;99.90
36856;DHT22;22788;51.434;6.786;2023-08-17T15:21:38;20.80;99.90
36856;DHT22;22788;51.434;6.786;2023-08-17T15:24:04;20.90;99.90